| time (UTC) | temp F | wind direction | speed knots | gust knots | rain 1hr in | rain 24hr in | rain mn in | humidity % | barometer mb |
| 20260503060107 | 48 | 190 | 2.6 | 6.1 | 0.00 | 0.03 | 0.00 | 98 | 1010.5 |
| 20260503054539 | 48 | 190 | 2.6 | 6.1 | 0.00 | 0.03 | 0.00 | 98 | 1010.6 |
| 20260503053038 | 48 | 190 | 2.6 | 7.0 | 0.00 | 0.03 | 0.00 | 98 | 1010.5 |
| 20260503051540 | 48 | 190 | 2.6 | 7.8 | 0.00 | 0.03 | 0.00 | 98 | 1010.5 |
| 20260503050043 | 48 | 190 | 2.6 | 7.0 | 0.00 | 0.03 | 0.00 | 97 | 1010.4 |
| 20260503044537 | 48 | 190 | 2.6 | 6.1 | 0.00 | 0.03 | 0.00 | 97 | 1010.5 |
| 20260503043047 | 48 | 190 | 1.7 | 6.1 | 0.00 | 0.03 | 0.00 | 96 | 1010.6 |
| 20260503041538 | 48 | 0 | 0.0 | 3.5 | 0.00 | 0.03 | 0.00 | 95 | 1010.5 |
| 20260503040052 | 48 | 0 | 0.0 | 1.7 | 0.00 | 0.03 | 0.00 | 95 | 1010.5 |
| 20260503034544 | 48 | 190 | 0.0 | 3.5 | 0.00 | 0.03 | 0.00 | 95 | 1010.6 |
| 20260503033038 | 48 | 190 | 0.9 | 2.6 | 0.00 | 0.03 | 0.00 | 95 | 1010.8 |
| 20260503031537 | 48 | 190 | 0.9 | 1.7 | 0.00 | 0.03 | 0.00 | 95 | 1010.8 |
| 20260503030037 | 48 | 190 | 0.9 | 3.5 | 0.00 | 0.03 | 0.00 | 95 | 1010.7 |
| 20260503024538 | 48 | 190 | 0.9 | 1.7 | 0.00 | 0.03 | 0.00 | 95 | 1010.7 |
| 20260503023052 | 48 | 190 | 0.0 | 0.9 | 0.00 | 0.03 | 0.00 | 95 | 1010.9 |
| 20260503021550 | 49 | 0 | 0.0 | 2.6 | 0.00 | 0.03 | 0.00 | 95 | 1010.9 |
| 20260503020047 | 49 | 190 | 0.9 | 3.5 | 0.00 | 0.03 | 0.00 | 95 | 1010.9 |
| 20260503014537 | 49 | 0 | 0.0 | 0.0 | 0.00 | 0.03 | 0.00 | 95 | 1011.0 |
| 20260503013040 | 48 | 0 | 0.0 | 0.9 | 0.00 | 0.03 | 0.00 | 94 | 1011.0 |
| 20260503011538 | 49 | 190 | 0.9 | 1.7 | 0.00 | 0.03 | 0.00 | 94 | 1011.0 |
| 20260503010036 | 49 | 190 | 0.0 | 1.7 | 0.00 | 0.03 | 0.00 | 94 | 1011.1 |
| 20260503004608 | 49 | 0 | 0.9 | 1.7 | 0.00 | 0.03 | 0.00 | 94 | 1011.1 |
| 20260503003056 | 49 | 0 | 0.0 | 0.0 | 0.00 | 0.03 | 0.00 | 94 | 1011.2 |
| 20260503001542 | 49 | 0 | 0.0 | 0.0 | 0.00 | 0.03 | 0.00 | 94 | 1011.2 |
| 20260503000040 | 49 | 0 | 0.0 | 0.0 | 0.00 | 0.03 | 0.00 | 94 | 1011.2 |
| 20260502234538 | 49 | 0 | 0.0 | 0.0 | 0.00 | 0.03 | 0.00 | 94 | 1011.3 |
| 20260502233037 | 49 | 0 | 0.0 | 0.0 | 0.00 | 0.03 | 0.00 | 94 | 1011.4 |
| 20260502231536 | 49 | 0 | 0.0 | 3.5 | 0.00 | 0.03 | 0.00 | 95 | 1011.4 |
| 20260502230045 | 49 | 190 | 0.0 | 1.7 | 0.00 | 0.03 | 0.00 | 95 | 1011.4 |
| 20260502224540 | 49 | 190 | 0.0 | 3.5 | 0.00 | 0.03 | 0.03 | 95 | 1011.4 |
| 20260502223037 | 49 | 190 | 2.6 | 4.3 | 0.00 | 0.03 | 0.03 | 95 | 1011.3 |
| 20260502221538 | 49 | 190 | 0.9 | 5.2 | 0.00 | 0.03 | 0.03 | 95 | 1011.5 |
| 20260502220038 | 49 | 190 | 0.9 | 4.3 | 0.00 | 0.03 | 0.03 | 95 | 1011.5 |
| 20260502214542 | 50 | 190 | 0.9 | 4.3 | 0.00 | 0.03 | 0.03 | 95 | 1011.4 |
| 20260502213054 | 50 | 190 | 0.0 | 1.7 | 0.00 | 0.03 | 0.03 | 95 | 1011.4 |
| 20260502211542 | 50 | 0 | 0.0 | 1.7 | 0.00 | 0.03 | 0.03 | 95 | 1011.4 |
| 20260502210042 | 49 | 0 | 0.0 | 2.6 | 0.00 | 0.03 | 0.03 | 95 | 1011.5 |
| 20260502204539 | 49 | 190 | 0.9 | 4.3 | 0.00 | 0.03 | 0.03 | 95 | 1011.4 |
| 20260502203040 | 49 | 190 | 1.7 | 6.1 | 0.00 | 0.03 | 0.03 | 95 | 1011.4 |
| 20260502201541 | 49 | 190 | 0.0 | 3.5 | 0.00 | 0.03 | 0.03 | 94 | 1011.4 |
| 20260502194549 | 51 | 190 | 0.9 | 3.5 | 0.00 | 0.03 | 0.03 | 94 | 1011.4 |
| 20260502193040 | 51 | 0 | 0.0 | 1.7 | 0.00 | 0.03 | 0.03 | 93 | 1011.3 |
| 20260502191536 | 52 | 190 | 0.0 | 3.5 | 0.00 | 0.03 | 0.03 | 92 | 1011.3 |
| 20260502190038 | 52 | 190 | 0.0 | 2.6 | 0.00 | 0.03 | 0.03 | 92 | 1011.1 |
| 20260502184536 | 53 | 0 | 0.0 | 3.5 | 0.00 | 0.03 | 0.03 | 91 | 1011.2 |
| 20260502183045 | 53 | 0 | 0.9 | 3.5 | 0.00 | 0.03 | 0.03 | 90 | 1011.2 |
| 20260502181537 | 53 | 190 | 1.7 | 3.5 | 0.00 | 0.03 | 0.03 | 89 | 1010.9 |
| 20260502163038 | 56 | 190 | 1.7 | 9.6 | 0.00 | 0.03 | 0.03 | 84 | 1011.3 |
| 20260502161542 | 58 | 190 | 2.6 | 7.0 | 0.00 | 0.03 | 0.03 | 84 | 1011.2 |
| 20260502151537 | 56 | 190 | 1.7 | 5.2 | 0.01 | 0.03 | 0.03 | 84 | 1011.8 |
| 20260502123038 | 56 | 190 | 0.9 | 3.5 | 0.00 | 0.00 | 0.00 | 82 | 1012.8 |
| 20260502121537 | 56 | 190 | 1.7 | 5.2 | 0.00 | 0.00 | 0.00 | 81 | 1013.0 |
| 20260502114539 | 57 | 190 | 0.0 | 2.6 | 0.00 | 0.00 | 0.00 | 82 | 1013.0 |
| 20260502113054 | 55 | 0 | 0.0 | 0.9 | 0.00 | 0.00 | 0.00 | 85 | 1013.0 |
| 20260502111543 | 54 | 190 | 0.0 | 1.7 | 0.00 | 0.00 | 0.00 | 87 | 1013.2 |
| 20260502110037 | 54 | 0 | 0.0 | 1.7 | 0.00 | 0.00 | 0.00 | 87 | 1013.3 |
| 20260502104541 | 54 | 190 | 0.0 | 2.6 | 0.00 | 0.00 | 0.00 | 87 | 1013.3 |
| 20260502103059 | 54 | 190 | 0.9 | 2.6 | 0.00 | 0.00 | 0.00 | 87 | 1013.5 |
| 20260502101550 | 54 | 190 | 0.9 | 6.1 | 0.00 | 0.00 | 0.00 | 86 | 1013.5 |
| 20260502070043 | 50 | 190 | 1.7 | 3.5 | 0.00 | 0.00 | 0.00 | 94 | 1013.4 |
| 20260502064539 | 50 | 190 | 0.0 | 5.2 | 0.00 | 0.00 | 0.00 | 95 | 1013.4 |
| 20260502063045 | 50 | 190 | 2.6 | 4.3 | 0.00 | 0.00 | 0.00 | 95 | 1013.4 |